sensor_id;sensor_type;location;lat;lon;timestamp;temperature;humidity
4759;DHT22;2393;50.560;12.636;2024-02-21T00:01:05;6.10;99.90
4759;DHT22;2393;50.560;12.636;2024-02-21T00:03:34;6.00;99.90
4759;DHT22;2393;50.560;12.636;2024-02-21T00:06:05;6.00;99.90
4759;DHT22;2393;50.560;12.636;2024-02-21T00:08:34;6.00;99.90
4759;DHT22;2393;50.560;12.636;2024-02-21T00:11:03;6.00;99.90
4759;DHT22;2393;50.560;12.636;2024-02-21T00:13:32;6.00;99.90
4759;DHT22;2393;50.560;12.636;2024-02-21T00:16:02;6.00;99.90
4759;DHT22;2393;50.560;12.636;2024-02-21T00:18:31;6.00;99.90
4759;DHT22;2393;50.560;12.636;2024-02-21T00:20:59;6.00;99.90
4759;DHT22;2393;50.560;12.636;2024-02-21T00:23:30;6.00;99.90
4759;DHT22;2393;50.560;12.636;2024-02-21T00:25:59;6.00;99.90
4759;DHT22;2393;50.560;12.636;2024-02-21T00:28:28;6.00;99.90
4759;DHT22;2393;50.560;12.636;2024-02-21T00:30:57;5.90;99.90
4759;DHT22;2393;50.560;12.636;2024-02-21T00:33:26;6.00;99.90
4759;DHT22;2393;50.560;12.636;2024-02-21T00:35:55;6.00;99.90
4759;DHT22;2393;50.560;12.636;2024-02-21T00:38:24;5.90;99.90
4759;DHT22;2393;50.560;12.636;2024-02-21T00:40:54;5.90;99.90
4759;DHT22;2393;50.560;12.636;2024-02-21T00:43:23;5.90;99.90
4759;DHT22;2393;50.560;12.636;2024-02-21T00:45:52;5.90;99.90
4759;DHT22;2393;50.560;12.636;2024-02-21T00:48:21;5.90;99.90
4759;DHT22;2393;50.560;12.636;2024-02-21T00:50:51;5.90;99.90
4759;DHT22;2393;50.560;12.636;2024-02-21T00:53:20;5.90;99.90
4759;DHT22;2393;50.560;12.636;2024-02-21T00:55:49;5.90;99.90
4759;DHT22;2393;50.560;12.636;2024-02-21T00:58:20;5.80;99.90
4759;DHT22;2393;50.560;12.636;2024-02-21T01:00:49;5.80;99.90
4759;DHT22;2393;50.560;12.636;2024-02-21T01:03:18;5.90;99.90
4759;DHT22;2393;50.560;12.636;2024-02-21T01:05:47;5.90;99.90
4759;DHT22;2393;50.560;12.636;2024-02-21T01:08:15;5.90;99.90
4759;DHT22;2393;50.560;12.636;2024-02-21T01:10:45;5.90;99.90
4759;DHT22;2393;50.560;12.636;2024-02-21T01:13:15;5.90;99.90
4759;DHT22;2393;50.560;12.636;2024-02-21T01:15:46;5.80;99.90
4759;DHT22;2393;50.560;12.636;2024-02-21T01:18:15;5.80;99.90
4759;DHT22;2393;50.560;12.636;2024-02-21T01:20:46;5.80;99.90
4759;DHT22;2393;50.560;12.636;2024-02-21T01:23:15;5.80;99.90
4759;DHT22;2393;50.560;12.636;2024-02-21T01:25:45;5.80;99.90
4759;DHT22;2393;50.560;12.636;2024-02-21T01:28:13;5.80;99.90
4759;DHT22;2393;50.560;12.636;2024-02-21T01:30:43;5.80;99.90
4759;DHT22;2393;50.560;12.636;2024-02-21T01:33:13;5.80;99.90
4759;DHT22;2393;50.560;12.636;2024-02-21T01:35:42;5.80;99.90
4759;DHT22;2393;50.560;12.636;2024-02-21T01:38:13;5.80;99.90
4759;DHT22;2393;50.560;12.636;2024-02-21T01:40:42;5.70;99.90
4759;DHT22;2393;50.560;12.636;2024-02-21T01:43:19;5.70;99.90
4759;DHT22;2393;50.560;12.636;2024-02-21T01:45:50;5.70;99.90
4759;DHT22;2393;50.560;12.636;2024-02-21T01:48:22;5.60;99.90
4759;DHT22;2393;50.560;12.636;2024-02-21T01:50:52;5.60;99.90
4759;DHT22;2393;50.560;12.636;2024-02-21T01:53:25;5.60;99.90
4759;DHT22;2393;50.560;12.636;2024-02-21T01:55:56;5.70;99.90
4759;DHT22;2393;50.560;12.636;2024-02-21T01:58:26;5.60;99.90
4759;DHT22;2393;50.560;12.636;2024-02-21T02:00:57;5.70;99.90
4759;DHT22;2393;50.560;12.636;2024-02-21T02:03:29;5.60;99.90
4759;DHT22;2393;50.560;12.636;2024-02-21T02:05:58;5.60;99.90
4759;DHT22;2393;50.560;12.636;2024-02-21T02:08:27;5.60;99.90
4759;DHT22;2393;50.560;12.636;2024-02-21T02:10:56;5.60;99.90
4759;DHT22;2393;50.560;12.636;2024-02-21T02:13:26;5.50;99.90
4759;DHT22;2393;50.560;12.636;2024-02-21T02:15:55;5.60;99.90
4759;DHT22;2393;50.560;12.636;2024-02-21T02:18:25;5.60;99.90
4759;DHT22;2393;50.560;12.636;2024-02-21T02:20:55;5.60;99.90
4759;DHT22;2393;50.560;12.636;2024-02-21T02:23:27;5.70;99.90
4759;DHT22;2393;50.560;12.636;2024-02-21T02:25:56;5.70;99.90
4759;DHT22;2393;50.560;12.636;2024-02-21T02:28:26;5.70;99.90
4759;DHT22;2393;50.560;12.636;2024-02-21T02:30:55;5.70;99.90
4759;DHT22;2393;50.560;12.636;2024-02-21T02:33:24;5.70;99.90
4759;DHT22;2393;50.560;12.636;2024-02-21T02:35:53;5.80;99.90
4759;DHT22;2393;50.560;12.636;2024-02-21T02:38:22;5.70;99.90
4759;DHT22;2393;50.560;12.636;2024-02-21T02:40:53;5.70;99.90
4759;DHT22;2393;50.560;12.636;2024-02-21T02:43:22;5.80;99.90
4759;DHT22;2393;50.560;12.636;2024-02-21T02:45:51;5.80;99.90
4759;DHT22;2393;50.560;12.636;2024-02-21T02:48:20;5.80;99.90
4759;DHT22;2393;50.560;12.636;2024-02-21T02:50:48;5.80;99.90
4759;DHT22;2393;50.560;12.636;2024-02-21T02:53:17;5.80;99.90
4759;DHT22;2393;50.560;12.636;2024-02-21T02:55:46;5.80;99.90
4759;DHT22;2393;50.560;12.636;2024-02-21T02:58:17;5.80;99.90
4759;DHT22;2393;50.560;12.636;2024-02-21T03:00:46;5.80;99.90
4759;DHT22;2393;50.560;12.636;2024-02-21T03:03:15;5.70;99.90
4759;DHT22;2393;50.560;12.636;2024-02-21T03:05:43;5.70;99.90
4759;DHT22;2393;50.560;12.636;2024-02-21T03:08:13;5.70;99.90
4759;DHT22;2393;50.560;12.636;2024-02-21T03:10:41;5.70;99.90
4759;DHT22;2393;50.560;12.636;2024-02-21T03:13:10;5.70;99.90
4759;DHT22;2393;50.560;12.636;2024-02-21T03:15:40;5.70;99.90
4759;DHT22;2393;50.560;12.636;2024-02-21T03:18:08;5.70;99.90
4759;DHT22;2393;50.560;12.636;2024-02-21T03:20:37;5.70;99.90
4759;DHT22;2393;50.560;12.636;2024-02-21T03:23:07;5.70;99.90
4759;DHT22;2393;50.560;12.636;2024-02-21T03:25:36;5.70;99.90
4759;DHT22;2393;50.560;12.636;2024-02-21T03:28:06;5.70;99.90
4759;DHT22;2393;50.560;12.636;2024-02-21T03:30:35;5.70;99.90
4759;DHT22;2393;50.560;12.636;2024-02-21T03:33:07;5.60;99.90
4759;DHT22;2393;50.560;12.636;2024-02-21T03:35:36;5.60;99.90
4759;DHT22;2393;50.560;12.636;2024-02-21T03:38:05;5.70;99.90
4759;DHT22;2393;50.560;12.636;2024-02-21T03:40:34;5.70;99.90
4759;DHT22;2393;50.560;12.636;2024-02-21T03:43:33;5.70;99.90
4759;DHT22;2393;50.560;12.636;2024-02-21T03:47:41;5.70;99.90
4759;DHT22;2393;50.560;12.636;2024-02-21T03:51:27;5.60;99.90
4759;DHT22;2393;50.560;12.636;2024-02-21T03:53:55;5.60;99.90
4759;DHT22;2393;50.560;12.636;2024-02-21T03:56:23;5.60;99.90
4759;DHT22;2393;50.560;12.636;2024-02-21T03:58:51;5.70;99.90
4759;DHT22;2393;50.560;12.636;2024-02-21T04:01:20;5.70;99.90
4759;DHT22;2393;50.560;12.636;2024-02-21T04:03:48;5.80;99.90
4759;DHT22;2393;50.560;12.636;2024-02-21T04:06:16;5.80;99.90
4759;DHT22;2393;50.560;12.636;2024-02-21T04:08:45;5.80;99.90
4759;DHT22;2393;50.560;12.636;2024-02-21T04:11:13;5.90;99.90
4759;DHT22;2393;50.560;12.636;2024-02-21T04:13:41;5.90;99.90
4759;DHT22;2393;50.560;12.636;2024-02-21T04:16:09;5.90;99.90
4759;DHT22;2393;50.560;12.636;2024-02-21T04:18:37;5.90;99.90
4759;DHT22;2393;50.560;12.636;2024-02-21T04:21:05;6.00;99.90
4759;DHT22;2393;50.560;12.636;2024-02-21T04:23:33;5.90;99.90
4759;DHT22;2393;50.560;12.636;2024-02-21T04:26:03;5.90;99.90
4759;DHT22;2393;50.560;12.636;2024-02-21T04:28:31;5.90;99.90
4759;DHT22;2393;50.560;12.636;2024-02-21T04:30:59;5.90;99.90
4759;DHT22;2393;50.560;12.636;2024-02-21T04:33:27;5.80;99.90
4759;DHT22;2393;50.560;12.636;2024-02-21T04:35:55;5.80;99.90
4759;DHT22;2393;50.560;12.636;2024-02-21T04:38:25;5.90;99.90
4759;DHT22;2393;50.560;12.636;2024-02-21T04:40:53;5.90;99.90
4759;DHT22;2393;50.560;12.636;2024-02-21T04:43:22;5.90;99.90
4759;DHT22;2393;50.560;12.636;2024-02-21T04:45:51;5.90;99.90
4759;DHT22;2393;50.560;12.636;2024-02-21T04:48:20;5.80;99.90
4759;DHT22;2393;50.560;12.636;2024-02-21T04:50:48;5.80;99.90
4759;DHT22;2393;50.560;12.636;2024-02-21T04:53:16;5.80;99.90
4759;DHT22;2393;50.560;12.636;2024-02-21T04:55:44;5.80;99.90
4759;DHT22;2393;50.560;12.636;2024-02-21T04:58:12;5.80;99.90
4759;DHT22;2393;50.560;12.636;2024-02-21T05:00:41;5.80;99.90
4759;DHT22;2393;50.560;12.636;2024-02-21T05:03:10;5.80;99.90
4759;DHT22;2393;50.560;12.636;2024-02-21T05:05:38;5.80;99.90
4759;DHT22;2393;50.560;12.636;2024-02-21T05:08:06;5.80;99.90
4759;DHT22;2393;50.560;12.636;2024-02-21T05:10:34;5.80;99.90
4759;DHT22;2393;50.560;12.636;2024-02-21T05:13:03;5.80;99.90
4759;DHT22;2393;50.560;12.636;2024-02-21T05:15:31;5.80;99.90
4759;DHT22;2393;50.560;12.636;2024-02-21T05:18:00;5.80;99.90
4759;DHT22;2393;50.560;12.636;2024-02-21T05:20:29;5.80;99.90
4759;DHT22;2393;50.560;12.636;2024-02-21T05:22:57;5.80;99.90
4759;DHT22;2393;50.560;12.636;2024-02-21T05:25:25;5.70;99.90
4759;DHT22;2393;50.560;12.636;2024-02-21T05:27:54;5.70;99.90
4759;DHT22;2393;50.560;12.636;2024-02-21T05:30:22;5.70;99.90
4759;DHT22;2393;50.560;12.636;2024-02-21T05:32:50;5.60;99.90
4759;DHT22;2393;50.560;12.636;2024-02-21T05:35:25;5.60;99.90
4759;DHT22;2393;50.560;12.636;2024-02-21T05:37:53;5.60;99.90
4759;DHT22;2393;50.560;12.636;2024-02-21T05:40:21;5.60;99.90
4759;DHT22;2393;50.560;12.636;2024-02-21T05:42:50;5.60;99.90
4759;DHT22;2393;50.560;12.636;2024-02-21T05:45:18;5.60;99.90
4759;DHT22;2393;50.560;12.636;2024-02-21T05:47:46;5.60;99.90
4759;DHT22;2393;50.560;12.636;2024-02-21T05:50:15;5.60;99.90
4759;DHT22;2393;50.560;12.636;2024-02-21T05:52:45;5.60;99.90
4759;DHT22;2393;50.560;12.636;2024-02-21T05:55:13;5.60;99.90
4759;DHT22;2393;50.560;12.636;2024-02-21T05:57:41;5.60;99.90
4759;DHT22;2393;50.560;12.636;2024-02-21T06:00:10;5.60;99.90
4759;DHT22;2393;50.560;12.636;2024-02-21T06:02:38;5.60;99.90
4759;DHT22;2393;50.560;12.636;2024-02-21T06:05:07;5.60;99.90
4759;DHT22;2393;50.560;12.636;2024-02-21T06:07:35;5.60;99.90
4759;DHT22;2393;50.560;12.636;2024-02-21T06:10:07;5.60;99.90
4759;DHT22;2393;50.560;12.636;2024-02-21T06:12:35;5.60;99.90
4759;DHT22;2393;50.560;12.636;2024-02-21T06:15:04;5.50;99.90
4759;DHT22;2393;50.560;12.636;2024-02-21T06:17:33;5.50;99.90
4759;DHT22;2393;50.560;12.636;2024-02-21T06:20:01;5.50;99.90
4759;DHT22;2393;50.560;12.636;2024-02-21T06:22:30;5.60;99.90
4759;DHT22;2393;50.560;12.636;2024-02-21T06:24:58;5.60;99.90
4759;DHT22;2393;50.560;12.636;2024-02-21T06:27:28;5.50;99.90
4759;DHT22;2393;50.560;12.636;2024-02-21T06:29:56;5.50;99.90
4759;DHT22;2393;50.560;12.636;2024-02-21T06:32:31;5.40;99.90
4759;DHT22;2393;50.560;12.636;2024-02-21T06:35:01;5.40;99.90
4759;DHT22;2393;50.560;12.636;2024-02-21T06:37:36;5.50;99.90
4759;DHT22;2393;50.560;12.636;2024-02-21T06:40:10;5.50;99.90
4759;DHT22;2393;50.560;12.636;2024-02-21T06:42:42;5.50;99.90
4759;DHT22;2393;50.560;12.636;2024-02-21T06:45:12;5.50;99.90
4759;DHT22;2393;50.560;12.636;2024-02-21T06:47:40;5.50;99.90
4759;DHT22;2393;50.560;12.636;2024-02-21T06:50:09;5.60;99.90
4759;DHT22;2393;50.560;12.636;2024-02-21T06:52:37;5.60;99.90
4759;DHT22;2393;50.560;12.636;2024-02-21T06:55:09;5.60;99.90
4759;DHT22;2393;50.560;12.636;2024-02-21T06:57:37;5.70;99.90
4759;DHT22;2393;50.560;12.636;2024-02-21T07:00:08;5.70;99.90
4759;DHT22;2393;50.560;12.636;2024-02-21T07:02:36;5.70;99.90
4759;DHT22;2393;50.560;12.636;2024-02-21T07:05:05;5.70;99.90
4759;DHT22;2393;50.560;12.636;2024-02-21T07:07:36;5.80;99.90
4759;DHT22;2393;50.560;12.636;2024-02-21T07:10:05;5.80;99.90
4759;DHT22;2393;50.560;12.636;2024-02-21T07:12:33;5.80;99.90
4759;DHT22;2393;50.560;12.636;2024-02-21T07:15:03;5.90;99.90
4759;DHT22;2393;50.560;12.636;2024-02-21T07:17:34;6.00;99.90
4759;DHT22;2393;50.560;12.636;2024-02-21T07:20:03;6.00;99.90
4759;DHT22;2393;50.560;12.636;2024-02-21T07:22:31;6.10;99.90
4759;DHT22;2393;50.560;12.636;2024-02-21T07:24:59;6.10;99.90
4759;DHT22;2393;50.560;12.636;2024-02-21T07:27:32;6.10;99.90
4759;DHT22;2393;50.560;12.636;2024-02-21T07:30:00;6.20;99.90
4759;DHT22;2393;50.560;12.636;2024-02-21T07:32:28;6.20;99.90
4759;DHT22;2393;50.560;12.636;2024-02-21T07:34:58;6.20;99.90
4759;DHT22;2393;50.560;12.636;2024-02-21T07:37:26;6.30;99.90
4759;DHT22;2393;50.560;12.636;2024-02-21T07:40:05;6.30;99.90
4759;DHT22;2393;50.560;12.636;2024-02-21T07:42:34;6.40;99.90
4759;DHT22;2393;50.560;12.636;2024-02-21T07:45:10;6.40;99.90
4759;DHT22;2393;50.560;12.636;2024-02-21T07:47:38;6.50;99.90
4759;DHT22;2393;50.560;12.636;2024-02-21T07:50:08;6.50;99.90
4759;DHT22;2393;50.560;12.636;2024-02-21T07:52:37;6.50;99.90
4759;DHT22;2393;50.560;12.636;2024-02-21T07:55:05;6.60;99.90
4759;DHT22;2393;50.560;12.636;2024-02-21T07:57:34;6.60;99.90
4759;DHT22;2393;50.560;12.636;2024-02-21T08:00:02;6.60;99.90
4759;DHT22;2393;50.560;12.636;2024-02-21T08:02:38;6.70;99.90
4759;DHT22;2393;50.560;12.636;2024-02-21T08:05:10;6.70;99.90
4759;DHT22;2393;50.560;12.636;2024-02-21T08:07:39;6.80;99.90
4759;DHT22;2393;50.560;12.636;2024-02-21T08:10:08;6.90;99.90
4759;DHT22;2393;50.560;12.636;2024-02-21T08:12:36;7.00;99.90
4759;DHT22;2393;50.560;12.636;2024-02-21T08:15:07;7.10;99.90
4759;DHT22;2393;50.560;12.636;2024-02-21T08:17:37;7.10;99.90
4759;DHT22;2393;50.560;12.636;2024-02-21T08:20:06;7.10;99.90
4759;DHT22;2393;50.560;12.636;2024-02-21T08:22:38;7.20;99.90
4759;DHT22;2393;50.560;12.636;2024-02-21T08:25:06;7.30;99.90
4759;DHT22;2393;50.560;12.636;2024-02-21T08:27:34;7.60;99.90
4759;DHT22;2393;50.560;12.636;2024-02-21T08:30:03;8.00;99.90
4759;DHT22;2393;50.560;12.636;2024-02-21T08:32:31;8.40;99.90
4759;DHT22;2393;50.560;12.636;2024-02-21T08:34:59;8.60;99.90
4759;DHT22;2393;50.560;12.636;2024-02-21T08:37:27;8.80;99.90
4759;DHT22;2393;50.560;12.636;2024-02-21T08:39:56;9.00;99.90
4759;DHT22;2393;50.560;12.636;2024-02-21T08:42:24;9.20;99.90
4759;DHT22;2393;50.560;12.636;2024-02-21T08:44:52;9.30;99.90
4759;DHT22;2393;50.560;12.636;2024-02-21T08:47:21;9.60;99.90
4759;DHT22;2393;50.560;12.636;2024-02-21T08:49:49;9.70;99.90
4759;DHT22;2393;50.560;12.636;2024-02-21T08:52:17;10.00;99.90
4759;DHT22;2393;50.560;12.636;2024-02-21T08:54:46;10.30;99.90
4759;DHT22;2393;50.560;12.636;2024-02-21T08:57:19;10.50;99.90
4759;DHT22;2393;50.560;12.636;2024-02-21T08:59:50;10.80;99.90
4759;DHT22;2393;50.560;12.636;2024-02-21T09:02:18;11.10;99.90
4759;DHT22;2393;50.560;12.636;2024-02-21T09:04:46;11.20;99.90
4759;DHT22;2393;50.560;12.636;2024-02-21T09:07:15;11.00;99.90
4759;DHT22;2393;50.560;12.636;2024-02-21T09:09:43;10.80;99.90
4759;DHT22;2393;50.560;12.636;2024-02-21T09:12:11;10.40;99.90
4759;DHT22;2393;50.560;12.636;2024-02-21T09:14:45;10.10;99.90
4759;DHT22;2393;50.560;12.636;2024-02-21T09:17:16;9.80;99.90
4759;DHT22;2393;50.560;12.636;2024-02-21T09:19:44;9.60;99.90
4759;DHT22;2393;50.560;12.636;2024-02-21T09:22:13;9.50;99.90
4759;DHT22;2393;50.560;12.636;2024-02-21T09:24:42;9.70;99.90
4759;DHT22;2393;50.560;12.636;2024-02-21T09:27:14;9.90;99.90
4759;DHT22;2393;50.560;12.636;2024-02-21T09:29:43;10.20;99.90
4759;DHT22;2393;50.560;12.636;2024-02-21T09:32:12;10.60;99.90
4759;DHT22;2393;50.560;12.636;2024-02-21T09:34:40;10.70;99.90
4759;DHT22;2393;50.560;12.636;2024-02-21T09:37:09;10.60;99.90
4759;DHT22;2393;50.560;12.636;2024-02-21T09:39:37;10.40;99.90
4759;DHT22;2393;50.560;12.636;2024-02-21T09:42:06;10.30;99.90
4759;DHT22;2393;50.560;12.636;2024-02-21T09:44:37;10.10;99.90
4759;DHT22;2393;50.560;12.636;2024-02-21T09:47:10;10.10;99.90
4759;DHT22;2393;50.560;12.636;2024-02-21T09:49:42;10.00;99.90
4759;DHT22;2393;50.560;12.636;2024-02-21T09:52:12;9.70;99.90
4759;DHT22;2393;50.560;12.636;2024-02-21T09:54:41;9.60;99.90
4759;DHT22;2393;50.560;12.636;2024-02-21T09:57:11;9.50;99.90
4759;DHT22;2393;50.560;12.636;2024-02-21T09:59:39;9.30;99.90
4759;DHT22;2393;50.560;12.636;2024-02-21T10:02:10;9.20;99.90
4759;DHT22;2393;50.560;12.636;2024-02-21T10:04:39;9.20;99.90
4759;DHT22;2393;50.560;12.636;2024-02-21T10:07:08;9.10;99.90
4759;DHT22;2393;50.560;12.636;2024-02-21T10:09:38;9.10;99.90
4759;DHT22;2393;50.560;12.636;2024-02-21T10:12:11;9.50;99.90
4759;DHT22;2393;50.560;12.636;2024-02-21T10:14:40;10.10;99.90
4759;DHT22;2393;50.560;12.636;2024-02-21T10:17:15;10.40;99.90
4759;DHT22;2393;50.560;12.636;2024-02-21T10:19:45;10.70;99.90
4759;DHT22;2393;50.560;12.636;2024-02-21T10:22:15;11.00;99.90
4759;DHT22;2393;50.560;12.636;2024-02-21T10:24:43;11.30;99.90
4759;DHT22;2393;50.560;12.636;2024-02-21T10:27:11;11.70;99.90
4759;DHT22;2393;50.560;12.636;2024-02-21T10:29:40;12.20;99.90
4759;DHT22;2393;50.560;12.636;2024-02-21T10:32:11;12.60;99.90
4759;DHT22;2393;50.560;12.636;2024-02-21T10:34:41;12.90;99.90
4759;DHT22;2393;50.560;12.636;2024-02-21T10:37:11;13.20;99.90
4759;DHT22;2393;50.560;12.636;2024-02-21T10:39:40;13.30;99.90
4759;DHT22;2393;50.560;12.636;2024-02-21T10:42:11;13.40;99.90
4759;DHT22;2393;50.560;12.636;2024-02-21T10:44:40;13.50;99.90
4759;DHT22;2393;50.560;12.636;2024-02-21T10:47:11;13.60;99.90
4759;DHT22;2393;50.560;12.636;2024-02-21T10:49:42;13.80;99.90
4759;DHT22;2393;50.560;12.636;2024-02-21T10:52:19;13.90;99.90
4759;DHT22;2393;50.560;12.636;2024-02-21T10:54:55;13.80;99.90
4759;DHT22;2393;50.560;12.636;2024-02-21T10:57:25;13.80;99.90
4759;DHT22;2393;50.560;12.636;2024-02-21T10:59:55;13.90;99.90
4759;DHT22;2393;50.560;12.636;2024-02-21T11:02:25;13.80;99.90
4759;DHT22;2393;50.560;12.636;2024-02-21T11:04:57;13.90;99.90
4759;DHT22;2393;50.560;12.636;2024-02-21T11:07:25;13.90;99.90
4759;DHT22;2393;50.560;12.636;2024-02-21T11:09:54;14.00;99.90
4759;DHT22;2393;50.560;12.636;2024-02-21T11:12:23;14.00;99.90
4759;DHT22;2393;50.560;12.636;2024-02-21T11:14:52;14.20;99.90
4759;DHT22;2393;50.560;12.636;2024-02-21T11:17:20;14.20;99.90
4759;DHT22;2393;50.560;12.636;2024-02-21T11:19:54;14.20;99.90
4759;DHT22;2393;50.560;12.636;2024-02-21T11:22:22;14.40;99.90
4759;DHT22;2393;50.560;12.636;2024-02-21T11:24:52;14.50;99.90
4759;DHT22;2393;50.560;12.636;2024-02-21T11:27:22;14.60;99.90
4759;DHT22;2393;50.560;12.636;2024-02-21T11:29:55;14.50;99.90
4759;DHT22;2393;50.560;12.636;2024-02-21T11:32:25;14.60;99.90
4759;DHT22;2393;50.560;12.636;2024-02-21T11:34:56;14.70;99.90
4759;DHT22;2393;50.560;12.636;2024-02-21T11:37:29;14.70;99.90
4759;DHT22;2393;50.560;12.636;2024-02-21T11:40:00;14.80;99.90
4759;DHT22;2393;50.560;12.636;2024-02-21T11:42:30;14.80;99.90
4759;DHT22;2393;50.560;12.636;2024-02-21T11:44:59;14.80;99.90
4759;DHT22;2393;50.560;12.636;2024-02-21T11:47:29;14.80;99.90
4759;DHT22;2393;50.560;12.636;2024-02-21T11:49:58;14.90;99.90
4759;DHT22;2393;50.560;12.636;2024-02-21T11:52:27;14.90;99.90
4759;DHT22;2393;50.560;12.636;2024-02-21T11:54:55;15.00;99.90
4759;DHT22;2393;50.560;12.636;2024-02-21T11:57:32;15.10;99.90
4759;DHT22;2393;50.560;12.636;2024-02-21T12:00:12;15.10;99.90
4759;DHT22;2393;50.560;12.636;2024-02-21T12:02:41;15.00;99.90
4759;DHT22;2393;50.560;12.636;2024-02-21T12:05:10;14.90;99.90
4759;DHT22;2393;50.560;12.636;2024-02-21T12:07:39;14.90;99.90
4759;DHT22;2393;50.560;12.636;2024-02-21T12:10:08;14.80;99.90
4759;DHT22;2393;50.560;12.636;2024-02-21T12:12:38;14.70;99.90
4759;DHT22;2393;50.560;12.636;2024-02-21T12:15:07;14.50;99.90
4759;DHT22;2393;50.560;12.636;2024-02-21T12:17:35;14.40;99.90
4759;DHT22;2393;50.560;12.636;2024-02-21T12:20:04;14.20;99.90
4759;DHT22;2393;50.560;12.636;2024-02-21T12:22:38;14.10;99.90
4759;DHT22;2393;50.560;12.636;2024-02-21T12:25:15;14.20;99.90
4759;DHT22;2393;50.560;12.636;2024-02-21T12:27:45;14.00;99.90
4759;DHT22;2393;50.560;12.636;2024-02-21T12:30:13;13.80;99.90
4759;DHT22;2393;50.560;12.636;2024-02-21T12:32:41;13.70;99.90
4759;DHT22;2393;50.560;12.636;2024-02-21T12:35:09;13.60;99.90
4759;DHT22;2393;50.560;12.636;2024-02-21T12:37:39;13.50;99.90
4759;DHT22;2393;50.560;12.636;2024-02-21T12:40:09;13.40;99.90
4759;DHT22;2393;50.560;12.636;2024-02-21T12:42:38;13.40;99.90
4759;DHT22;2393;50.560;12.636;2024-02-21T12:45:07;13.30;99.90
4759;DHT22;2393;50.560;12.636;2024-02-21T12:47:35;13.30;99.90
4759;DHT22;2393;50.560;12.636;2024-02-21T12:50:04;13.30;99.90
4759;DHT22;2393;50.560;12.636;2024-02-21T12:52:34;13.40;99.90
4759;DHT22;2393;50.560;12.636;2024-02-21T12:55:05;13.20;99.90
4759;DHT22;2393;50.560;12.636;2024-02-21T12:57:33;13.20;99.90
4759;DHT22;2393;50.560;12.636;2024-02-21T13:00:01;13.10;99.90
4759;DHT22;2393;50.560;12.636;2024-02-21T13:02:30;13.10;99.90
4759;DHT22;2393;50.560;12.636;2024-02-21T13:04:58;13.10;99.90
4759;DHT22;2393;50.560;12.636;2024-02-21T13:07:28;13.10;99.90
4759;DHT22;2393;50.560;12.636;2024-02-21T13:09:58;13.10;99.90
4759;DHT22;2393;50.560;12.636;2024-02-21T13:12:27;13.20;99.90
4759;DHT22;2393;50.560;12.636;2024-02-21T13:14:57;13.30;99.90
4759;DHT22;2393;50.560;12.636;2024-02-21T13:17:25;13.40;99.90
4759;DHT22;2393;50.560;12.636;2024-02-21T13:19:57;13.30;99.90
4759;DHT22;2393;50.560;12.636;2024-02-21T13:22:26;13.50;99.90
4759;DHT22;2393;50.560;12.636;2024-02-21T13:24:54;13.50;99.90
4759;DHT22;2393;50.560;12.636;2024-02-21T13:27:24;13.60;99.90
4759;DHT22;2393;50.560;12.636;2024-02-21T13:29:54;13.60;99.90
4759;DHT22;2393;50.560;12.636;2024-02-21T13:32:22;13.60;99.90
4759;DHT22;2393;50.560;12.636;2024-02-21T13:34:50;13.60;99.90
4759;DHT22;2393;50.560;12.636;2024-02-21T13:37:20;13.50;99.80
4759;DHT22;2393;50.560;12.636;2024-02-21T13:39:48;13.40;99.70
4759;DHT22;2393;50.560;12.636;2024-02-21T13:42:16;13.30;99.90
4759;DHT22;2393;50.560;12.636;2024-02-21T13:44:44;13.20;99.90
4759;DHT22;2393;50.560;12.636;2024-02-21T13:47:14;13.20;99.90
4759;DHT22;2393;50.560;12.636;2024-02-21T13:49:42;13.20;99.90
4759;DHT22;2393;50.560;12.636;2024-02-21T13:52:10;13.20;99.90
4759;DHT22;2393;50.560;12.636;2024-02-21T13:54:38;13.10;99.90
4759;DHT22;2393;50.560;12.636;2024-02-21T13:57:06;13.10;99.90
4759;DHT22;2393;50.560;12.636;2024-02-21T13:59:34;12.90;99.90
4759;DHT22;2393;50.560;12.636;2024-02-21T14:02:03;12.90;99.90
4759;DHT22;2393;50.560;12.636;2024-02-21T14:04:32;12.90;99.90
4759;DHT22;2393;50.560;12.636;2024-02-21T14:07:01;12.90;99.90
4759;DHT22;2393;50.560;12.636;2024-02-21T14:09:29;12.90;99.90
4759;DHT22;2393;50.560;12.636;2024-02-21T14:11:57;12.90;99.90
4759;DHT22;2393;50.560;12.636;2024-02-21T14:14:25;12.90;99.90
4759;DHT22;2393;50.560;12.636;2024-02-21T14:16:53;12.80;99.90
4759;DHT22;2393;50.560;12.636;2024-02-21T14:19:23;12.80;99.90
4759;DHT22;2393;50.560;12.636;2024-02-21T14:21:52;12.80;99.90
4759;DHT22;2393;50.560;12.636;2024-02-21T14:24:20;12.90;99.90
4759;DHT22;2393;50.560;12.636;2024-02-21T14:26:48;13.00;99.90
4759;DHT22;2393;50.560;12.636;2024-02-21T14:29:16;12.90;99.90
4759;DHT22;2393;50.560;12.636;2024-02-21T14:31:44;12.90;99.90
4759;DHT22;2393;50.560;12.636;2024-02-21T14:34:12;12.80;99.90
4759;DHT22;2393;50.560;12.636;2024-02-21T14:36:41;12.70;99.90
4759;DHT22;2393;50.560;12.636;2024-02-21T14:39:10;12.50;99.90
4759;DHT22;2393;50.560;12.636;2024-02-21T14:41:38;12.30;99.90
4759;DHT22;2393;50.560;12.636;2024-02-21T14:44:06;12.20;99.90
4759;DHT22;2393;50.560;12.636;2024-02-21T14:46:37;11.90;99.90
4759;DHT22;2393;50.560;12.636;2024-02-21T14:49:05;11.80;99.90
4759;DHT22;2393;50.560;12.636;2024-02-21T14:51:33;11.70;99.90
4759;DHT22;2393;50.560;12.636;2024-02-21T14:54:02;11.50;99.90
4759;DHT22;2393;50.560;12.636;2024-02-21T14:56:31;11.40;99.90
4759;DHT22;2393;50.560;12.636;2024-02-21T14:58:59;11.30;99.90
4759;DHT22;2393;50.560;12.636;2024-02-21T15:01:40;11.20;99.90
4759;DHT22;2393;50.560;12.636;2024-02-21T15:04:08;11.20;99.90
4759;DHT22;2393;50.560;12.636;2024-02-21T15:06:37;11.10;99.90
4759;DHT22;2393;50.560;12.636;2024-02-21T15:09:06;11.20;99.90
4759;DHT22;2393;50.560;12.636;2024-02-21T15:11:37;11.10;99.90
4759;DHT22;2393;50.560;12.636;2024-02-21T15:14:05;11.10;99.90
4759;DHT22;2393;50.560;12.636;2024-02-21T15:16:33;11.00;99.90
4759;DHT22;2393;50.560;12.636;2024-02-21T15:19:03;10.90;99.90
4759;DHT22;2393;50.560;12.636;2024-02-21T15:21:31;10.80;99.90
4759;DHT22;2393;50.560;12.636;2024-02-21T15:23:59;10.70;99.90
4759;DHT22;2393;50.560;12.636;2024-02-21T15:26:29;10.80;99.90
4759;DHT22;2393;50.560;12.636;2024-02-21T15:28:58;10.70;99.90
4759;DHT22;2393;50.560;12.636;2024-02-21T15:31:27;10.70;99.90
4759;DHT22;2393;50.560;12.636;2024-02-21T15:33:56;10.60;99.90
4759;DHT22;2393;50.560;12.636;2024-02-21T15:36:24;10.60;99.90
4759;DHT22;2393;50.560;12.636;2024-02-21T15:38:55;10.50;99.90
4759;DHT22;2393;50.560;12.636;2024-02-21T15:41:25;10.40;99.90
4759;DHT22;2393;50.560;12.636;2024-02-21T15:43:53;10.40;99.90
4759;DHT22;2393;50.560;12.636;2024-02-21T15:46:25;10.40;99.90
4759;DHT22;2393;50.560;12.636;2024-02-21T15:48:53;10.30;99.90
4759;DHT22;2393;50.560;12.636;2024-02-21T15:51:22;10.30;99.90
4759;DHT22;2393;50.560;12.636;2024-02-21T15:53:50;10.20;99.90
4759;DHT22;2393;50.560;12.636;2024-02-21T15:56:18;10.30;99.90
4759;DHT22;2393;50.560;12.636;2024-02-21T15:58:47;10.20;99.90
4759;DHT22;2393;50.560;12.636;2024-02-21T16:01:15;10.10;99.90
4759;DHT22;2393;50.560;12.636;2024-02-21T16:03:44;10.10;99.90
4759;DHT22;2393;50.560;12.636;2024-02-21T16:06:12;10.10;99.90
4759;DHT22;2393;50.560;12.636;2024-02-21T16:08:41;10.00;99.90
4759;DHT22;2393;50.560;12.636;2024-02-21T16:11:13;9.90;99.90